sensor_id;sensor_type;location;lat;lon;timestamp;P1;P2;P0
80639;PMS5003;69992;60.170;24.692;2023-10-31T00:00:44;11;11;
80639;PMS5003;69992;60.170;24.692;2023-10-31T00:03:09;14;13;
80639;PMS5003;69992;60.170;24.692;2023-10-31T00:05:34;15;14;
80639;PMS5003;69992;60.170;24.692;2023-10-31T00:08:00;18;17;
80639;PMS5003;69992;60.170;24.692;2023-10-31T00:10:25;13;12;
80639;PMS5003;69992;60.170;24.692;2023-10-31T00:12:51;18;17;
80639;PMS5003;69992;60.170;24.692;2023-10-31T00:15:16;15;15;
80639;PMS5003;69992;60.170;24.692;2023-10-31T00:17:41;14;13;
80639;PMS5003;69992;60.170;24.692;2023-10-31T00:20:07;17;14;
80639;PMS5003;69992;60.170;24.692;2023-10-31T00:22:32;14;12;
80639;PMS5003;69992;60.170;24.692;2023-10-31T00:24:58;17;15;
80639;PMS5003;69992;60.170;24.692;2023-10-31T00:27:24;14;13;
80639;PMS5003;69992;60.170;24.692;2023-10-31T00:29:50;11;11;
80639;PMS5003;69992;60.170;24.692;2023-10-31T00:32:15;18;18;
80639;PMS5003;69992;60.170;24.692;2023-10-31T00:34:40;13;13;
80639;PMS5003;69992;60.170;24.692;2023-10-31T00:37:05;22;18;
80639;PMS5003;69992;60.170;24.692;2023-10-31T00:39:31;13;13;
80639;PMS5003;69992;60.170;24.692;2023-10-31T00:41:57;18;17;
80639;PMS5003;69992;60.170;24.692;2023-10-31T00:44:23;14;13;
80639;PMS5003;69992;60.170;24.692;2023-10-31T00:46:47;12;12;
80639;PMS5003;69992;60.170;24.692;2023-10-31T00:49:13;14;12;
80639;PMS5003;69992;60.170;24.692;2023-10-31T00:51:38;14;13;
80639;PMS5003;69992;60.170;24.692;2023-10-31T00:54:04;15;13;
80639;PMS5003;69992;60.170;24.692;2023-10-31T00:56:29;12;12;
80639;PMS5003;69992;60.170;24.692;2023-10-31T00:58:54;10;9;
80639;PMS5003;69992;60.170;24.692;2023-10-31T01:01:21;11;11;
80639;PMS5003;69992;60.170;24.692;2023-10-31T01:03:46;7;7;
80639;PMS5003;69992;60.170;24.692;2023-10-31T01:06:11;10;10;
80639;PMS5003;69992;60.170;24.692;2023-10-31T01:08:36;9;9;
80639;PMS5003;69992;60.170;24.692;2023-10-31T01:11:02;12;11;
80639;PMS5003;69992;60.170;24.692;2023-10-31T01:13:27;11;11;
80639;PMS5003;69992;60.170;24.692;2023-10-31T01:15:52;10;9;
80639;PMS5003;69992;60.170;24.692;2023-10-31T01:18:18;12;11;
80639;PMS5003;69992;60.170;24.692;2023-10-31T01:20:43;11;11;
80639;PMS5003;69992;60.170;24.692;2023-10-31T01:23:08;14;14;
80639;PMS5003;69992;60.170;24.692;2023-10-31T01:25:34;12;12;
80639;PMS5003;69992;60.170;24.692;2023-10-31T01:28:00;15;14;
80639;PMS5003;69992;60.170;24.692;2023-10-31T01:30:26;14;13;
80639;PMS5003;69992;60.170;24.692;2023-10-31T01:32:52;13;13;
80639;PMS5003;69992;60.170;24.692;2023-10-31T01:35:18;13;11;
80639;PMS5003;69992;60.170;24.692;2023-10-31T01:37:42;20;17;
80639;PMS5003;69992;60.170;24.692;2023-10-31T01:40:08;14;12;
80639;PMS5003;69992;60.170;24.692;2023-10-31T01:42:33;45;40;
80639;PMS5003;69992;60.170;24.692;2023-10-31T01:44:59;23;22;
80639;PMS5003;69992;60.170;24.692;2023-10-31T01:47:24;13;13;
80639;PMS5003;69992;60.170;24.692;2023-10-31T01:49:50;12;11;
80639;PMS5003;69992;60.170;24.692;2023-10-31T01:52:16;14;13;
80639;PMS5003;69992;60.170;24.692;2023-10-31T01:54:41;13;13;
80639;PMS5003;69992;60.170;24.692;2023-10-31T01:57:07;13;13;
80639;PMS5003;69992;60.170;24.692;2023-10-31T01:59:32;10;8;
80639;PMS5003;69992;60.170;24.692;2023-10-31T02:01:58;13;13;
80639;PMS5003;69992;60.170;24.692;2023-10-31T02:04:24;13;12;
80639;PMS5003;69992;60.170;24.692;2023-10-31T02:06:50;11;11;
80639;PMS5003;69992;60.170;24.692;2023-10-31T02:09:16;10;10;
80639;PMS5003;69992;60.170;24.692;2023-10-31T02:11:41;10;8;
80639;PMS5003;69992;60.170;24.692;2023-10-31T02:14:07;15;12;
80639;PMS5003;69992;60.170;24.692;2023-10-31T02:16:32;12;10;
80639;PMS5003;69992;60.170;24.692;2023-10-31T02:18:58;14;13;
80639;PMS5003;69992;60.170;24.692;2023-10-31T02:21:24;10;10;
80639;PMS5003;69992;60.170;24.692;2023-10-31T02:26:15;12;12;
80639;PMS5003;69992;60.170;24.692;2023-10-31T02:28:40;17;14;
80639;PMS5003;69992;60.170;24.692;2023-10-31T02:31:06;13;13;
80639;PMS5003;69992;60.170;24.692;2023-10-31T02:33:31;8;8;
80639;PMS5003;69992;60.170;24.692;2023-10-31T02:35:57;10;10;
80639;PMS5003;69992;60.170;24.692;2023-10-31T02:38:23;10;10;
80639;PMS5003;69992;60.170;24.692;2023-10-31T02:40:48;12;11;
80639;PMS5003;69992;60.170;24.692;2023-10-31T02:43:14;10;10;
80639;PMS5003;69992;60.170;24.692;2023-10-31T02:45:40;11;11;
80639;PMS5003;69992;60.170;24.692;2023-10-31T02:48:06;10;10;
80639;PMS5003;69992;60.170;24.692;2023-10-31T02:50:31;11;11;
80639;PMS5003;69992;60.170;24.692;2023-10-31T02:52:57;13;12;
80639;PMS5003;69992;60.170;24.692;2023-10-31T02:55:22;14;13;
80639;PMS5003;69992;60.170;24.692;2023-10-31T02:57:47;12;11;
80639;PMS5003;69992;60.170;24.692;2023-10-31T03:00:13;10;10;
80639;PMS5003;69992;60.170;24.692;2023-10-31T03:02:38;10;7;
80639;PMS5003;69992;60.170;24.692;2023-10-31T03:05:03;8;8;
80639;PMS5003;69992;60.170;24.692;2023-10-31T03:07:29;12;12;
80639;PMS5003;69992;60.170;24.692;2023-10-31T03:09:55;16;11;
80639;PMS5003;69992;60.170;24.692;2023-10-31T03:12:22;12;12;
80639;PMS5003;69992;60.170;24.692;2023-10-31T03:14:46;13;12;
80639;PMS5003;69992;60.170;24.692;2023-10-31T03:17:12;11;11;
80639;PMS5003;69992;60.170;24.692;2023-10-31T03:19:37;8;8;
80639;PMS5003;69992;60.170;24.692;2023-10-31T03:22:03;12;12;
80639;PMS5003;69992;60.170;24.692;2023-10-31T03:24:28;11;11;
80639;PMS5003;69992;60.170;24.692;2023-10-31T03:26:54;10;8;
80639;PMS5003;69992;60.170;24.692;2023-10-31T03:29:19;8;8;
80639;PMS5003;69992;60.170;24.692;2023-10-31T03:31:45;8;7;
80639;PMS5003;69992;60.170;24.692;2023-10-31T03:34:10;7;7;
80639;PMS5003;69992;60.170;24.692;2023-10-31T03:36:35;10;8;
80639;PMS5003;69992;60.170;24.692;2023-10-31T03:39:01;6;6;
80639;PMS5003;69992;60.170;24.692;2023-10-31T03:41:26;8;7;
80639;PMS5003;69992;60.170;24.692;2023-10-31T03:43:51;8;7;
80639;PMS5003;69992;60.170;24.692;2023-10-31T03:46:17;7;7;
80639;PMS5003;69992;60.170;24.692;2023-10-31T03:48:42;10;10;
80639;PMS5003;69992;60.170;24.692;2023-10-31T03:51:08;12;9;
80639;PMS5003;69992;60.170;24.692;2023-10-31T03:53:33;10;10;
80639;PMS5003;69992;60.170;24.692;2023-10-31T03:55:58;10;8;
80639;PMS5003;69992;60.170;24.692;2023-10-31T03:58:24;12;10;
80639;PMS5003;69992;60.170;24.692;2023-10-31T04:00:49;8;8;
80639;PMS5003;69992;60.170;24.692;2023-10-31T04:03:15;11;11;
80639;PMS5003;69992;60.170;24.692;2023-10-31T04:05:40;13;13;
80639;PMS5003;69992;60.170;24.692;2023-10-31T04:08:05;12;11;
80639;PMS5003;69992;60.170;24.692;2023-10-31T04:10:31;16;12;
80639;PMS5003;69992;60.170;24.692;2023-10-31T04:12:56;11;11;
80639;PMS5003;69992;60.170;24.692;2023-10-31T04:15:22;13;12;
80639;PMS5003;69992;60.170;24.692;2023-10-31T04:17:47;11;11;
80639;PMS5003;69992;60.170;24.692;2023-10-31T04:20:12;12;12;
80639;PMS5003;69992;60.170;24.692;2023-10-31T04:22:38;14;14;
80639;PMS5003;69992;60.170;24.692;2023-10-31T04:25:04;13;13;
80639;PMS5003;69992;60.170;24.692;2023-10-31T04:27:29;14;14;
80639;PMS5003;69992;60.170;24.692;2023-10-31T04:29:55;15;13;
80639;PMS5003;69992;60.170;24.692;2023-10-31T04:32:22;17;15;
80639;PMS5003;69992;60.170;24.692;2023-10-31T04:34:46;17;17;
80639;PMS5003;69992;60.170;24.692;2023-10-31T04:37:11;14;14;
80639;PMS5003;69992;60.170;24.692;2023-10-31T04:39:36;14;13;
80639;PMS5003;69992;60.170;24.692;2023-10-31T04:42:02;18;16;
80639;PMS5003;69992;60.170;24.692;2023-10-31T04:44:27;14;13;
80639;PMS5003;69992;60.170;24.692;2023-10-31T04:46:53;16;14;
80639;PMS5003;69992;60.170;24.692;2023-10-31T04:49:18;14;13;
80639;PMS5003;69992;60.170;24.692;2023-10-31T04:51:43;14;13;
80639;PMS5003;69992;60.170;24.692;2023-10-31T04:54:09;11;10;
80639;PMS5003;69992;60.170;24.692;2023-10-31T04:56:36;21;16;
80639;PMS5003;69992;60.170;24.692;2023-10-31T04:59:00;9;9;
80639;PMS5003;69992;60.170;24.692;2023-10-31T05:01:26;10;9;
80639;PMS5003;69992;60.170;24.692;2023-10-31T05:03:51;7;7;
80639;PMS5003;69992;60.170;24.692;2023-10-31T05:06:18;7;7;
80639;PMS5003;69992;60.170;24.692;2023-10-31T05:08:41;7;6;
80639;PMS5003;69992;60.170;24.692;2023-10-31T05:11:07;7;5;
80639;PMS5003;69992;60.170;24.692;2023-10-31T05:13:32;9;7;
80639;PMS5003;69992;60.170;24.692;2023-10-31T05:15:58;7;6;
80639;PMS5003;69992;60.170;24.692;2023-10-31T05:18:24;6;5;
80639;PMS5003;69992;60.170;24.692;2023-10-31T05:20:50;5;4;
80639;PMS5003;69992;60.170;24.692;2023-10-31T05:23:16;6;5;
80639;PMS5003;69992;60.170;24.692;2023-10-31T05:25:41;3;3;
80639;PMS5003;69992;60.170;24.692;2023-10-31T05:28:06;4;2;
80639;PMS5003;69992;60.170;24.692;2023-10-31T05:30:32;3;3;
80639;PMS5003;69992;60.170;24.692;2023-10-31T05:32:58;4;4;
80639;PMS5003;69992;60.170;24.692;2023-10-31T05:35:24;2;2;
80639;PMS5003;69992;60.170;24.692;2023-10-31T05:37:50;3;2;
80639;PMS5003;69992;60.170;24.692;2023-10-31T05:40:16;2;2;
80639;PMS5003;69992;60.170;24.692;2023-10-31T05:42:41;2;2;
80639;PMS5003;69992;60.170;24.692;2023-10-31T05:45:07;2;2;
80639;PMS5003;69992;60.170;24.692;2023-10-31T05:47:33;2;2;
80639;PMS5003;69992;60.170;24.692;2023-10-31T05:49:59;2;2;
80639;PMS5003;69992;60.170;24.692;2023-10-31T05:52:27;5;3;
80639;PMS5003;69992;60.170;24.692;2023-10-31T05:54:51;2;2;
80639;PMS5003;69992;60.170;24.692;2023-10-31T05:57:16;3;3;
80639;PMS5003;69992;60.170;24.692;2023-10-31T05:59:42;2;2;
80639;PMS5003;69992;60.170;24.692;2023-10-31T06:02:08;2;2;
80639;PMS5003;69992;60.170;24.692;2023-10-31T06:04:34;2;2;
80639;PMS5003;69992;60.170;24.692;2023-10-31T06:07:00;2;2;
80639;PMS5003;69992;60.170;24.692;2023-10-31T06:09:25;3;3;
80639;PMS5003;69992;60.170;24.692;2023-10-31T06:11:51;4;3;
80639;PMS5003;69992;60.170;24.692;2023-10-31T06:14:17;3;3;
80639;PMS5003;69992;60.170;24.692;2023-10-31T06:16:43;2;2;
80639;PMS5003;69992;60.170;24.692;2023-10-31T06:19:09;4;4;
80639;PMS5003;69992;60.170;24.692;2023-10-31T06:21:34;4;3;
80639;PMS5003;69992;60.170;24.692;2023-10-31T06:24:00;5;5;
80639;PMS5003;69992;60.170;24.692;2023-10-31T06:26:26;4;3;
80639;PMS5003;69992;60.170;24.692;2023-10-31T06:28:52;4;4;
80639;PMS5003;69992;60.170;24.692;2023-10-31T06:31:18;4;3;
80639;PMS5003;69992;60.170;24.692;2023-10-31T06:33:43;4;4;
80639;PMS5003;69992;60.170;24.692;2023-10-31T06:36:09;3;3;
80639;PMS5003;69992;60.170;24.692;2023-10-31T06:38:35;3;3;
80639;PMS5003;69992;60.170;24.692;2023-10-31T06:41:01;5;4;
80639;PMS5003;69992;60.170;24.692;2023-10-31T06:43:27;4;4;
80639;PMS5003;69992;60.170;24.692;2023-10-31T06:45:53;6;5;
80639;PMS5003;69992;60.170;24.692;2023-10-31T06:48:18;5;3;
80639;PMS5003;69992;60.170;24.692;2023-10-31T06:50:45;6;5;
80639;PMS5003;69992;60.170;24.692;2023-10-31T06:53:10;5;5;
80639;PMS5003;69992;60.170;24.692;2023-10-31T06:55:36;5;5;
80639;PMS5003;69992;60.170;24.692;2023-10-31T06:58:01;5;5;
80639;PMS5003;69992;60.170;24.692;2023-10-31T07:00:27;4;4;
80639;PMS5003;69992;60.170;24.692;2023-10-31T07:02:53;5;5;
80639;PMS5003;69992;60.170;24.692;2023-10-31T07:05:19;5;4;
80639;PMS5003;69992;60.170;24.692;2023-10-31T07:07:45;5;5;
80639;PMS5003;69992;60.170;24.692;2023-10-31T07:10:10;5;5;
80639;PMS5003;69992;60.170;24.692;2023-10-31T07:12:36;6;5;
80639;PMS5003;69992;60.170;24.692;2023-10-31T07:15:02;4;4;
80639;PMS5003;69992;60.170;24.692;2023-10-31T07:17:28;6;4;
80639;PMS5003;69992;60.170;24.692;2023-10-31T07:19:54;4;4;
80639;PMS5003;69992;60.170;24.692;2023-10-31T07:22:19;5;4;
80639;PMS5003;69992;60.170;24.692;2023-10-31T07:24:45;3;3;
80639;PMS5003;69992;60.170;24.692;2023-10-31T07:27:11;4;4;
80639;PMS5003;69992;60.170;24.692;2023-10-31T07:29:38;3;3;
80639;PMS5003;69992;60.170;24.692;2023-10-31T07:32:03;3;3;
80639;PMS5003;69992;60.170;24.692;2023-10-31T07:34:29;4;4;
80639;PMS5003;69992;60.170;24.692;2023-10-31T07:36:54;3;3;
80639;PMS5003;69992;60.170;24.692;2023-10-31T07:39:20;5;5;
80639;PMS5003;69992;60.170;24.692;2023-10-31T07:41:46;3;2;
80639;PMS5003;69992;60.170;24.692;2023-10-31T07:44:12;5;4;
80639;PMS5003;69992;60.170;24.692;2023-10-31T07:46:37;4;4;
80639;PMS5003;69992;60.170;24.692;2023-10-31T07:49:03;2;2;
80639;PMS5003;69992;60.170;24.692;2023-10-31T07:51:29;3;3;
80639;PMS5003;69992;60.170;24.692;2023-10-31T07:53:55;4;3;
80639;PMS5003;69992;60.170;24.692;2023-10-31T07:56:26;3;3;
80639;PMS5003;69992;60.170;24.692;2023-10-31T07:58:46;4;4;
80639;PMS5003;69992;60.170;24.692;2023-10-31T08:01:12;3;3;
80639;PMS5003;69992;60.170;24.692;2023-10-31T08:03:38;5;5;
80639;PMS5003;69992;60.170;24.692;2023-10-31T08:06:05;5;5;
80639;PMS5003;69992;60.170;24.692;2023-10-31T08:08:30;5;4;
80639;PMS5003;69992;60.170;24.692;2023-10-31T08:10:55;6;5;
80639;PMS5003;69992;60.170;24.692;2023-10-31T08:13:21;5;5;
80639;PMS5003;69992;60.170;24.692;2023-10-31T08:15:47;56;48;
80639;PMS5003;69992;60.170;24.692;2023-10-31T08:18:12;5;5;
80639;PMS5003;69992;60.170;24.692;2023-10-31T08:20:38;5;4;
80639;PMS5003;69992;60.170;24.692;2023-10-31T08:23:04;5;4;
80639;PMS5003;69992;60.170;24.692;2023-10-31T08:25:30;6;6;
80639;PMS5003;69992;60.170;24.692;2023-10-31T08:27:56;5;5;
80639;PMS5003;69992;60.170;24.692;2023-10-31T08:30:22;4;4;
80639;PMS5003;69992;60.170;24.692;2023-10-31T08:32:47;5;5;
80639;PMS5003;69992;60.170;24.692;2023-10-31T08:35:13;5;5;
80639;PMS5003;69992;60.170;24.692;2023-10-31T08:37:39;5;5;
80639;PMS5003;69992;60.170;24.692;2023-10-31T08:40:05;5;5;
80639;PMS5003;69992;60.170;24.692;2023-10-31T08:42:30;5;5;
80639;PMS5003;69992;60.170;24.692;2023-10-31T08:44:56;6;6;
80639;PMS5003;69992;60.170;24.692;2023-10-31T08:47:22;6;6;
80639;PMS5003;69992;60.170;24.692;2023-10-31T08:49:48;7;6;
80639;PMS5003;69992;60.170;24.692;2023-10-31T08:52:13;6;6;
80639;PMS5003;69992;60.170;24.692;2023-10-31T08:54:39;9;7;
80639;PMS5003;69992;60.170;24.692;2023-10-31T08:57:05;7;6;
80639;PMS5003;69992;60.170;24.692;2023-10-31T08:59:31;5;5;
80639;PMS5003;69992;60.170;24.692;2023-10-31T09:01:56;7;5;
80639;PMS5003;69992;60.170;24.692;2023-10-31T09:04:22;7;6;
80639;PMS5003;69992;60.170;24.692;2023-10-31T09:06:48;4;4;
80639;PMS5003;69992;60.170;24.692;2023-10-31T09:09:14;7;6;
80639;PMS5003;69992;60.170;24.692;2023-10-31T09:11:39;6;6;
80639;PMS5003;69992;60.170;24.692;2023-10-31T09:14:05;4;4;
80639;PMS5003;69992;60.170;24.692;2023-10-31T09:16:31;6;6;
80639;PMS5003;69992;60.170;24.692;2023-10-31T09:18:57;5;5;
80639;PMS5003;69992;60.170;24.692;2023-10-31T09:21:23;5;5;
80639;PMS5003;69992;60.170;24.692;2023-10-31T09:23:48;7;7;
80639;PMS5003;69992;60.170;24.692;2023-10-31T09:26:14;4;4;
80639;PMS5003;69992;60.170;24.692;2023-10-31T09:28:40;5;5;
80639;PMS5003;69992;60.170;24.692;2023-10-31T09:31:05;5;4;
80639;PMS5003;69992;60.170;24.692;2023-10-31T09:33:31;5;5;
80639;PMS5003;69992;60.170;24.692;2023-10-31T09:35:57;5;5;
80639;PMS5003;69992;60.170;24.692;2023-10-31T09:38:23;5;4;
80639;PMS5003;69992;60.170;24.692;2023-10-31T09:40:49;6;5;
80639;PMS5003;69992;60.170;24.692;2023-10-31T09:43:14;5;5;
80639;PMS5003;69992;60.170;24.692;2023-10-31T09:45:40;4;4;
80639;PMS5003;69992;60.170;24.692;2023-10-31T09:48:06;5;5;
80639;PMS5003;69992;60.170;24.692;2023-10-31T09:50:32;4;4;
80639;PMS5003;69992;60.170;24.692;2023-10-31T09:52:57;8;7;
80639;PMS5003;69992;60.170;24.692;2023-10-31T09:55:23;6;6;
80639;PMS5003;69992;60.170;24.692;2023-10-31T09:57:49;6;6;
80639;PMS5003;69992;60.170;24.692;2023-10-31T10:00:15;7;6;
80639;PMS5003;69992;60.170;24.692;2023-10-31T10:02:40;6;6;
80639;PMS5003;69992;60.170;24.692;2023-10-31T10:05:07;8;8;
80639;PMS5003;69992;60.170;24.692;2023-10-31T10:07:33;8;7;
80639;PMS5003;69992;60.170;24.692;2023-10-31T10:09:57;7;6;
80639;PMS5003;69992;60.170;24.692;2023-10-31T10:12:23;11;9;
80639;PMS5003;69992;60.170;24.692;2023-10-31T10:14:49;6;5;
80639;PMS5003;69992;60.170;24.692;2023-10-31T10:17:15;5;5;
80639;PMS5003;69992;60.170;24.692;2023-10-31T10:19:40;5;5;
80639;PMS5003;69992;60.170;24.692;2023-10-31T10:22:06;6;6;
80639;PMS5003;69992;60.170;24.692;2023-10-31T10:24:32;9;9;
80639;PMS5003;69992;60.170;24.692;2023-10-31T10:26:57;6;6;
80639;PMS5003;69992;60.170;24.692;2023-10-31T10:29:23;5;5;
80639;PMS5003;69992;60.170;24.692;2023-10-31T10:31:48;5;5;
80639;PMS5003;69992;60.170;24.692;2023-10-31T10:34:15;5;5;
80639;PMS5003;69992;60.170;24.692;2023-10-31T10:36:40;8;7;
80639;PMS5003;69992;60.170;24.692;2023-10-31T10:39:06;8;7;
80639;PMS5003;69992;60.170;24.692;2023-10-31T10:41:32;8;6;
80639;PMS5003;69992;60.170;24.692;2023-10-31T10:44:02;9;8;
80639;PMS5003;69992;60.170;24.692;2023-10-31T10:46:24;6;5;
80639;PMS5003;69992;60.170;24.692;2023-10-31T10:48:49;9;7;
80639;PMS5003;69992;60.170;24.692;2023-10-31T10:51:17;10;6;
80639;PMS5003;69992;60.170;24.692;2023-10-31T10:53:42;6;6;
80639;PMS5003;69992;60.170;24.692;2023-10-31T10:56:07;7;7;
80639;PMS5003;69992;60.170;24.692;2023-10-31T10:58:33;6;5;
80639;PMS5003;69992;60.170;24.692;2023-10-31T11:00:57;7;5;
80639;PMS5003;69992;60.170;24.692;2023-10-31T11:03:23;5;5;
80639;PMS5003;69992;60.170;24.692;2023-10-31T11:05:48;5;5;
80639;PMS5003;69992;60.170;24.692;2023-10-31T11:08:14;6;5;
80639;PMS5003;69992;60.170;24.692;2023-10-31T11:10:40;6;5;
80639;PMS5003;69992;60.170;24.692;2023-10-31T11:13:06;6;6;
80639;PMS5003;69992;60.170;24.692;2023-10-31T11:15:31;8;7;
80639;PMS5003;69992;60.170;24.692;2023-10-31T11:17:57;5;5;
80639;PMS5003;69992;60.170;24.692;2023-10-31T11:20:23;11;7;
80639;PMS5003;69992;60.170;24.692;2023-10-31T11:22:48;4;4;
80639;PMS5003;69992;60.170;24.692;2023-10-31T11:25:15;5;5;
80639;PMS5003;69992;60.170;24.692;2023-10-31T11:27:40;3;3;
80639;PMS5003;69992;60.170;24.692;2023-10-31T11:30:06;5;5;
80639;PMS5003;69992;60.170;24.692;2023-10-31T11:32:31;6;6;
80639;PMS5003;69992;60.170;24.692;2023-10-31T11:34:57;5;5;
80639;PMS5003;69992;60.170;24.692;2023-10-31T11:37:24;6;4;
80639;PMS5003;69992;60.170;24.692;2023-10-31T11:42:17;4;4;
80639;PMS5003;69992;60.170;24.692;2023-10-31T11:44:45;5;5;
80639;PMS5003;69992;60.170;24.692;2023-10-31T11:47:05;5;4;
80639;PMS5003;69992;60.170;24.692;2023-10-31T11:51:57;4;4;
80639;PMS5003;69992;60.170;24.692;2023-10-31T11:54:23;5;5;
80639;PMS5003;69992;60.170;24.692;2023-10-31T11:56:50;4;4;
80639;PMS5003;69992;60.170;24.692;2023-10-31T11:59:14;4;4;
80639;PMS5003;69992;60.170;24.692;2023-10-31T12:01:44;5;5;
80639;PMS5003;69992;60.170;24.692;2023-10-31T12:04:06;4;4;
80639;PMS5003;69992;60.170;24.692;2023-10-31T12:06:31;3;3;
80639;PMS5003;69992;60.170;24.692;2023-10-31T12:08:59;3;3;
80639;PMS5003;69992;60.170;24.692;2023-10-31T12:11:23;4;4;
80639;PMS5003;69992;60.170;24.692;2023-10-31T12:13:53;5;5;
80639;PMS5003;69992;60.170;24.692;2023-10-31T12:16:14;3;3;
80639;PMS5003;69992;60.170;24.692;2023-10-31T12:18:40;4;4;
80639;PMS5003;69992;60.170;24.692;2023-10-31T12:21:06;6;5;
80639;PMS5003;69992;60.170;24.692;2023-10-31T12:23:31;4;4;
80639;PMS5003;69992;60.170;24.692;2023-10-31T12:25:57;5;4;
80639;PMS5003;69992;60.170;24.692;2023-10-31T12:28:23;4;4;
80639;PMS5003;69992;60.170;24.692;2023-10-31T12:30:49;4;3;
80639;PMS5003;69992;60.170;24.692;2023-10-31T12:33:15;5;4;
80639;PMS5003;69992;60.170;24.692;2023-10-31T12:35:40;4;3;
80639;PMS5003;69992;60.170;24.692;2023-10-31T12:38:06;4;4;
80639;PMS5003;69992;60.170;24.692;2023-10-31T12:40:31;4;4;
80639;PMS5003;69992;60.170;24.692;2023-10-31T12:42:57;4;4;
80639;PMS5003;69992;60.170;24.692;2023-10-31T12:45:24;4;4;
80639;PMS5003;69992;60.170;24.692;2023-10-31T12:50:15;4;4;
80639;PMS5003;69992;60.170;24.692;2023-10-31T12:52:46;4;3;
80639;PMS5003;69992;60.170;24.692;2023-10-31T12:57:35;5;5;
80639;PMS5003;69992;60.170;24.692;2023-10-31T12:59:57;4;3;
80639;PMS5003;69992;60.170;24.692;2023-10-31T13:02:23;5;5;
80639;PMS5003;69992;60.170;24.692;2023-10-31T13:04:48;3;3;
80639;PMS5003;69992;60.170;24.692;2023-10-31T13:07:14;4;4;
80639;PMS5003;69992;60.170;24.692;2023-10-31T13:09:40;6;5;
80639;PMS5003;69992;60.170;24.692;2023-10-31T13:12:06;4;4;
80639;PMS5003;69992;60.170;24.692;2023-10-31T13:14:32;4;4;
80639;PMS5003;69992;60.170;24.692;2023-10-31T13:16:57;5;5;
80639;PMS5003;69992;60.170;24.692;2023-10-31T13:19:24;6;5;
80639;PMS5003;69992;60.170;24.692;2023-10-31T13:21:49;4;4;
80639;PMS5003;69992;60.170;24.692;2023-10-31T13:24:14;4;4;
80639;PMS5003;69992;60.170;24.692;2023-10-31T13:26:40;4;4;
80639;PMS5003;69992;60.170;24.692;2023-10-31T13:29:06;6;5;
80639;PMS5003;69992;60.170;24.692;2023-10-31T13:31:31;5;5;
80639;PMS5003;69992;60.170;24.692;2023-10-31T13:33:57;4;4;
80639;PMS5003;69992;60.170;24.692;2023-10-31T13:36:23;5;5;
80639;PMS5003;69992;60.170;24.692;2023-10-31T13:38:49;9;8;
80639;PMS5003;69992;60.170;24.692;2023-10-31T13:41:14;4;4;
80639;PMS5003;69992;60.170;24.692;2023-10-31T13:43:40;5;5;
80639;PMS5003;69992;60.170;24.692;2023-10-31T13:46:06;5;5;
80639;PMS5003;69992;60.170;24.692;2023-10-31T13:48:31;5;5;
80639;PMS5003;69992;60.170;24.692;2023-10-31T13:50:58;6;5;
80639;PMS5003;69992;60.170;24.692;2023-10-31T13:53:23;8;6;
80639;PMS5003;69992;60.170;24.692;2023-10-31T13:55:49;5;4;
80639;PMS5003;69992;60.170;24.692;2023-10-31T13:58:14;6;6;
80639;PMS5003;69992;60.170;24.692;2023-10-31T14:00:41;6;6;
80639;PMS5003;69992;60.170;24.692;2023-10-31T14:03:06;8;7;
80639;PMS5003;69992;60.170;24.692;2023-10-31T14:05:32;8;8;
80639;PMS5003;69992;60.170;24.692;2023-10-31T14:07:57;8;7;
80639;PMS5003;69992;60.170;24.692;2023-10-31T14:10:23;5;5;
80639;PMS5003;69992;60.170;24.692;2023-10-31T14:12:49;6;6;
80639;PMS5003;69992;60.170;24.692;2023-10-31T14:15:15;6;6;
80639;PMS5003;69992;60.170;24.692;2023-10-31T14:17:40;11;9;
80639;PMS5003;69992;60.170;24.692;2023-10-31T14:20:07;6;6;
80639;PMS5003;69992;60.170;24.692;2023-10-31T14:22:32;6;6;
80639;PMS5003;69992;60.170;24.692;2023-10-31T14:24:57;5;5;
80639;PMS5003;69992;60.170;24.692;2023-10-31T14:27:23;8;7;
80639;PMS5003;69992;60.170;24.692;2023-10-31T14:29:49;7;7;
80639;PMS5003;69992;60.170;24.692;2023-10-31T14:32:15;5;4;
80639;PMS5003;69992;60.170;24.692;2023-10-31T14:34:40;5;5;
80639;PMS5003;69992;60.170;24.692;2023-10-31T14:37:06;5;5;
80639;PMS5003;69992;60.170;24.692;2023-10-31T14:39:32;5;5;
80639;PMS5003;69992;60.170;24.692;2023-10-31T14:41:58;6;6;
80639;PMS5003;69992;60.170;24.692;2023-10-31T14:44:23;6;5;
80639;PMS5003;69992;60.170;24.692;2023-10-31T14:46:49;4;4;
80639;PMS5003;69992;60.170;24.692;2023-10-31T14:49:15;5;5;
80639;PMS5003;69992;60.170;24.692;2023-10-31T14:51:41;5;5;
80639;PMS5003;69992;60.170;24.692;2023-10-31T14:54:06;4;4;
80639;PMS5003;69992;60.170;24.692;2023-10-31T14:56:32;4;4;
80639;PMS5003;69992;60.170;24.692;2023-10-31T14:58:58;3;3;
80639;PMS5003;69992;60.170;24.692;2023-10-31T15:01:24;4;4;
80639;PMS5003;69992;60.170;24.692;2023-10-31T15:03:49;3;3;
80639;PMS5003;69992;60.170;24.692;2023-10-31T15:06:15;3;3;
80639;PMS5003;69992;60.170;24.692;2023-10-31T15:08:40;2;2;
80639;PMS5003;69992;60.170;24.692;2023-10-31T15:11:06;3;3;
80639;PMS5003;69992;60.170;24.692;2023-10-31T15:13:32;4;4;
80639;PMS5003;69992;60.170;24.692;2023-10-31T15:15:58;4;4;
80639;PMS5003;69992;60.170;24.692;2023-10-31T15:18:24;3;3;
80639;PMS5003;69992;60.170;24.692;2023-10-31T15:20:49;4;3;
80639;PMS5003;69992;60.170;24.692;2023-10-31T15:23:15;4;4;
80639;PMS5003;69992;60.170;24.692;2023-10-31T15:25:41;5;4;
80639;PMS5003;69992;60.170;24.692;2023-10-31T15:28:06;3;3;
80639;PMS5003;69992;60.170;24.692;2023-10-31T15:30:32;5;4;
80639;PMS5003;69992;60.170;24.692;2023-10-31T15:32:58;2;2;
80639;PMS5003;69992;60.170;24.692;2023-10-31T15:35:24;3;3;
80639;PMS5003;69992;60.170;24.692;2023-10-31T15:37:49;3;3;
80639;PMS5003;69992;60.170;24.692;2023-10-31T15:40:15;3;3;
80639;PMS5003;69992;60.170;24.692;2023-10-31T15:42:41;2;2;
80639;PMS5003;69992;60.170;24.692;2023-10-31T15:45:07;3;3;
80639;PMS5003;69992;60.170;24.692;2023-10-31T15:47:32;2;2;
80639;PMS5003;69992;60.170;24.692;2023-10-31T15:49:58;2;2;
80639;PMS5003;69992;60.170;24.692;2023-10-31T15:52:24;2;2;
80639;PMS5003;69992;60.170;24.692;2023-10-31T15:54:49;2;1;
80639;PMS5003;69992;60.170;24.692;2023-10-31T15:57:15;4;3;
80639;PMS5003;69992;60.170;24.692;2023-10-31T15:59:41;2;2;
80639;PMS5003;69992;60.170;24.692;2023-10-31T16:02:06;3;3;
80639;PMS5003;69992;60.170;24.692;2023-10-31T16:04:32;1;1;
80639;PMS5003;69992;60.170;24.692;2023-10-31T16:06:58;2;2;
80639;PMS5003;69992;60.170;24.692;2023-10-31T16:09:24;3;3;
80639;PMS5003;69992;60.170;24.692;2023-10-31T16:11:49;2;2;
80639;PMS5003;69992;60.170;24.692;2023-10-31T16:14:15;3;3;
80639;PMS5003;69992;60.170;24.692;2023-10-31T16:16:41;1;1;
80639;PMS5003;69992;60.170;24.692;2023-10-31T16:19:06;2;2;
80639;PMS5003;69992;60.170;24.692;2023-10-31T16:21:32;4;2;
80639;PMS5003;69992;60.170;24.692;2023-10-31T16:23:58;2;2;
80639;PMS5003;69992;60.170;24.692;2023-10-31T16:26:24;3;3;